sensor_id;sensor_type;location;lat;lon;timestamp;pressure;altitude;pressure_sealevel;temperature;humidity
22662;BME280;11497;52.222;21.246;2023-03-20T00:01:22;100367.03;;;3.82;77.31
22662;BME280;11497;52.222;21.246;2023-03-20T00:03:51;100360.16;;;3.81;77.04
22662;BME280;11497;52.222;21.246;2023-03-20T00:06:21;100364.50;;;3.72;77.31
22662;BME280;11497;52.222;21.246;2023-03-20T00:08:51;100359.38;;;3.65;77.59
22662;BME280;11497;52.222;21.246;2023-03-20T00:11:38;100352.41;;;3.77;77.58
22662;BME280;11497;52.222;21.246;2023-03-20T00:14:11;100352.34;;;3.86;78.01
22662;BME280;11497;52.222;21.246;2023-03-20T00:16:42;100354.06;;;3.90;77.63
22662;BME280;11497;52.222;21.246;2023-03-20T00:21:45;100345.38;;;3.94;77.41
22662;BME280;11497;52.222;21.246;2023-03-20T00:24:15;100352.28;;;3.92;77.63
22662;BME280;11497;52.222;21.246;2023-03-20T00:26:45;100347.09;;;3.95;77.83
22662;BME280;11497;52.222;21.246;2023-03-20T00:29:23;100344.47;;;3.99;77.47
22662;BME280;11497;52.222;21.246;2023-03-20T00:31:52;100345.38;;;3.91;77.54
22662;BME280;11497;52.222;21.246;2023-03-20T00:34:23;100348.88;;;3.90;77.41
22662;BME280;11497;52.222;21.246;2023-03-20T00:36:52;100347.94;;;3.97;76.89
22662;BME280;11497;52.222;21.246;2023-03-20T00:39:21;100352.28;;;3.92;76.67
22662;BME280;11497;52.222;21.246;2023-03-20T00:42:02;100347.19;;;3.86;77.17
22662;BME280;11497;52.222;21.246;2023-03-20T00:44:42;100338.56;;;3.84;76.94
22662;BME280;11497;52.222;21.246;2023-03-20T00:47:17;100336.03;;;3.75;76.90
22662;BME280;11497;52.222;21.246;2023-03-20T00:49:47;100331.69;;;3.80;76.87
22662;BME280;11497;52.222;21.246;2023-03-20T00:52:20;100333.44;;;3.75;77.16
22662;BME280;11497;52.222;21.246;2023-03-20T00:54:51;100331.75;;;3.67;77.18
22662;BME280;11497;52.222;21.246;2023-03-20T00:57:20;100328.31;;;3.65;77.27
22662;BME280;11497;52.222;21.246;2023-03-20T01:00:07;100324.03;;;3.60;77.21
22662;BME280;11497;52.222;21.246;2023-03-20T01:02:35;100331.81;;;3.55;77.40
22662;BME280;11497;52.222;21.246;2023-03-20T01:05:03;100326.66;;;3.52;76.78
22662;BME280;11497;52.222;21.246;2023-03-20T01:07:32;100328.41;;;3.47;77.44
22662;BME280;11497;52.222;21.246;2023-03-20T01:10:03;100319.81;;;3.45;77.32
22662;BME280;11497;52.222;21.246;2023-03-20T01:12:31;100321.56;;;3.45;77.22
22662;BME280;11497;52.222;21.246;2023-03-20T01:15:00;100316.31;;;3.49;77.47
22662;BME280;11497;52.222;21.246;2023-03-20T01:17:28;100328.41;;;3.50;77.34
22662;BME280;11497;52.222;21.246;2023-03-20T01:19:56;100325.75;;;3.58;77.45
22662;BME280;11497;52.222;21.246;2023-03-20T01:22:24;100328.41;;;3.50;77.20
22662;BME280;11497;52.222;21.246;2023-03-20T01:24:52;100314.66;;;3.45;77.90
22662;BME280;11497;52.222;21.246;2023-03-20T01:27:20;100323.31;;;3.38;77.51
22662;BME280;11497;52.222;21.246;2023-03-20T01:29:48;100322.47;;;3.33;78.27
22662;BME280;11497;52.222;21.246;2023-03-20T01:32:18;100319.88;;;3.33;78.55
22662;BME280;11497;52.222;21.246;2023-03-20T01:34:49;100325.06;;;3.30;78.61
22662;BME280;11497;52.222;21.246;2023-03-20T01:37:25;100316.41;;;3.40;78.33
22662;BME280;11497;52.222;21.246;2023-03-20T01:39:57;100321.59;;;3.36;78.18
22662;BME280;11497;52.222;21.246;2023-03-20T01:42:25;100324.06;;;3.54;78.98
22662;BME280;11497;52.222;21.246;2023-03-20T01:44:53;100319.72;;;3.57;78.71
22662;BME280;11497;52.222;21.246;2023-03-20T01:47:23;100315.47;;;3.50;78.53
22662;BME280;11497;52.222;21.246;2023-03-20T01:50:24;100314.66;;;3.42;78.38
22662;BME280;11497;52.222;21.246;2023-03-20T01:53:26;100319.84;;;3.42;78.59
22662;BME280;11497;52.222;21.246;2023-03-20T01:55:59;100308.63;;;3.45;78.33
22662;BME280;11497;52.222;21.246;2023-03-20T01:58:39;100311.22;;;3.40;79.02
22662;BME280;11497;52.222;21.246;2023-03-20T02:01:12;100306.06;;;3.40;78.84
22662;BME280;11497;52.222;21.246;2023-03-20T02:03:45;100309.41;;;3.51;78.80
22662;BME280;11497;52.222;21.246;2023-03-20T02:06:33;100305.19;;;3.43;78.37
22662;BME280;11497;52.222;21.246;2023-03-20T02:09:11;100306.06;;;3.37;78.51
22662;BME280;11497;52.222;21.246;2023-03-20T02:11:43;100301.75;;;3.36;78.13
22662;BME280;11497;52.222;21.246;2023-03-20T02:14:12;100301.78;;;3.33;78.48
22662;BME280;11497;52.222;21.246;2023-03-20T02:17:09;100302.63;;;3.35;78.50
22662;BME280;11497;52.222;21.246;2023-03-20T02:22:51;100293.88;;;3.51;78.59
22662;BME280;11497;52.222;21.246;2023-03-20T02:25:52;100295.53;;;3.64;77.60
22662;BME280;11497;52.222;21.246;2023-03-20T02:45:36;100284.50;;;3.41;77.04
22662;BME280;11497;52.222;21.246;2023-03-20T02:51:15;100276.72;;;3.44;77.40
22662;BME280;11497;52.222;21.246;2023-03-20T02:56:42;100275.94;;;3.28;78.18
22662;BME280;11497;52.222;21.246;2023-03-20T02:59:22;100275.88;;;3.41;77.47
22662;BME280;11497;52.222;21.246;2023-03-20T03:02:15;100272.28;;;3.60;77.64
22662;BME280;11497;52.222;21.246;2023-03-20T03:04:50;100285.22;;;3.61;77.07
22662;BME280;11497;52.222;21.246;2023-03-20T03:07:23;100280.91;;;3.60;77.21
22662;BME280;11497;52.222;21.246;2023-03-20T03:10:11;100280.97;;;3.47;77.05
22662;BME280;11497;52.222;21.246;2023-03-20T03:12:45;100275.91;;;3.33;77.30
22662;BME280;11497;52.222;21.246;2023-03-20T03:15:26;100269.94;;;3.22;77.62
22662;BME280;11497;52.222;21.246;2023-03-20T03:17:56;100277.72;;;3.17;78.24
22662;BME280;11497;52.222;21.246;2023-03-20T03:20:30;100278.63;;;3.06;78.18
22662;BME280;11497;52.222;21.246;2023-03-20T03:23:00;100279.53;;;3.00;78.75
22662;BME280;11497;52.222;21.246;2023-03-20T03:25:31;100278.66;;;3.03;79.41
22662;BME280;11497;52.222;21.246;2023-03-20T03:28:18;100279.47;;;3.06;79.48
22662;BME280;11497;52.222;21.246;2023-03-20T03:30:50;100280.41;;;3.00;79.01
22662;BME280;11497;52.222;21.246;2023-03-20T03:33:28;100281.25;;;3.03;79.07
22662;BME280;11497;52.222;21.246;2023-03-20T03:41:56;100276.97;;;2.95;80.10
22662;BME280;11497;52.222;21.246;2023-03-20T03:47:23;100264.09;;;2.85;80.44
22662;BME280;11497;52.222;21.246;2023-03-20T03:50:03;100262.34;;;2.87;80.36
22662;BME280;11497;52.222;21.246;2023-03-20T03:52:33;100258.06;;;2.86;80.33
22662;BME280;11497;52.222;21.246;2023-03-20T03:55:07;100263.22;;;2.87;80.61
22662;BME280;11497;52.222;21.246;2023-03-20T03:58:36;100251.97;;;2.97;81.04
22662;BME280;11497;52.222;21.246;2023-03-20T04:01:06;100259.66;;;3.04;81.04
22662;BME280;11497;52.222;21.246;2023-03-20T04:03:43;100245.88;;;3.05;80.82
22662;BME280;11497;52.222;21.246;2023-03-20T04:06:13;100249.38;;;2.97;80.59
22662;BME280;11497;52.222;21.246;2023-03-20T04:08:42;100240.81;;;2.83;80.70
22662;BME280;11497;52.222;21.246;2023-03-20T04:11:19;100251.19;;;2.74;81.05
22662;BME280;11497;52.222;21.246;2023-03-20T04:13:49;100253.75;;;2.86;81.49
22662;BME280;11497;52.222;21.246;2023-03-20T04:16:19;100252.91;;;2.78;81.43
22662;BME280;11497;52.222;21.246;2023-03-20T04:18:48;100259.81;;;2.73;81.59
22662;BME280;11497;52.222;21.246;2023-03-20T04:21:17;100264.16;;;2.62;81.79
22662;BME280;11497;52.222;21.246;2023-03-20T04:23:45;100266.75;;;2.60;81.68
22662;BME280;11497;52.222;21.246;2023-03-20T04:26:14;100270.22;;;2.55;81.88
22662;BME280;11497;52.222;21.246;2023-03-20T04:28:42;100260.75;;;2.51;82.18
22662;BME280;11497;52.222;21.246;2023-03-20T04:31:28;100263.34;;;2.45;82.60
22662;BME280;11497;52.222;21.246;2023-03-20T04:34:19;100265.06;;;2.49;82.67
22662;BME280;11497;52.222;21.246;2023-03-20T04:37:14;100266.78;;;2.50;82.76
22662;BME280;11497;52.222;21.246;2023-03-20T04:39:48;100259.06;;;2.45;82.60
22662;BME280;11497;52.222;21.246;2023-03-20T04:42:16;100261.63;;;2.47;82.77
22662;BME280;11497;52.222;21.246;2023-03-20T04:44:44;100263.34;;;2.48;83.37
22662;BME280;11497;52.222;21.246;2023-03-20T04:47:12;100262.47;;;2.59;82.87
22662;BME280;11497;52.222;21.246;2023-03-20T04:49:42;100265.84;;;2.72;82.84
22662;BME280;11497;52.222;21.246;2023-03-20T04:52:10;100264.09;;;2.83;82.49
22662;BME280;11497;52.222;21.246;2023-03-20T04:54:41;100259.75;;;2.88;82.14
22662;BME280;11497;52.222;21.246;2023-03-20T04:57:08;100273.53;;;2.90;82.06
22662;BME280;11497;52.222;21.246;2023-03-20T04:59:37;100264.06;;;2.88;81.86
22662;BME280;11497;52.222;21.246;2023-03-20T05:02:06;100268.38;;;2.93;81.75
22662;BME280;11497;52.222;21.246;2023-03-20T05:04:33;100277.84;;;2.96;81.76
22662;BME280;11497;52.222;21.246;2023-03-20T05:07:02;100263.16;;;2.99;82.42
22662;BME280;11497;52.222;21.246;2023-03-20T05:09:38;100273.44;;;3.09;82.03
22662;BME280;11497;52.222;21.246;2023-03-20T05:12:08;100270.78;;;3.22;82.24
22662;BME280;11497;52.222;21.246;2023-03-20T05:14:55;100276.78;;;3.32;82.21
22662;BME280;11497;52.222;21.246;2023-03-20T05:17:24;100270.69;;;3.42;81.92
22662;BME280;11497;52.222;21.246;2023-03-20T05:20:17;100273.16;;;3.59;81.41
22662;BME280;11497;52.222;21.246;2023-03-20T05:23:08;100266.06;;;3.84;81.51
22662;BME280;11497;52.222;21.246;2023-03-20T05:25:54;100264.19;;;4.01;80.90
22662;BME280;11497;52.222;21.246;2023-03-20T05:28:55;100264.69;;;4.40;79.76
22662;BME280;11497;52.222;21.246;2023-03-20T05:31:31;100271.13;;;4.80;78.12
22662;BME280;11497;52.222;21.246;2023-03-20T05:34:25;100273.28;;;5.17;76.36
22662;BME280;11497;52.222;21.246;2023-03-20T05:37:09;100270.19;;;5.52;74.76
22662;BME280;11497;52.222;21.246;2023-03-20T05:39:55;100266.19;;;5.86;72.55
22662;BME280;11497;52.222;21.246;2023-03-20T05:42:42;100270.97;;;6.60;71.27
22662;BME280;11497;52.222;21.246;2023-03-20T05:45:30;100271.94;;;7.38;69.75
22662;BME280;11497;52.222;21.246;2023-03-20T05:48:17;100272.59;;;8.54;67.28
22662;BME280;11497;52.222;21.246;2023-03-20T05:51:05;100265.47;;;9.50;63.79
22662;BME280;11497;52.222;21.246;2023-03-20T05:54:02;100263.13;;;9.12;62.05
22662;BME280;11497;52.222;21.246;2023-03-20T05:56:49;100272.03;;;9.34;60.98
22662;BME280;11497;52.222;21.246;2023-03-20T05:59:28;100267.22;;;9.50;59.58
22662;BME280;11497;52.222;21.246;2023-03-20T06:02:17;100276.88;;;10.28;57.74
22662;BME280;11497;52.222;21.246;2023-03-20T06:04:54;100270.09;;;10.23;56.27
22662;BME280;11497;52.222;21.246;2023-03-20T06:07:30;100278.31;;;10.62;55.47
22662;BME280;11497;52.222;21.246;2023-03-20T06:10:07;100278.44;;;11.52;53.61
22662;BME280;11497;52.222;21.246;2023-03-20T06:12:36;100273.22;;;11.96;51.83
22662;BME280;11497;52.222;21.246;2023-03-20T06:15:04;100268.53;;;12.45;50.51
22662;BME280;11497;52.222;21.246;2023-03-20T06:17:37;100277.03;;;12.70;49.54
22662;BME280;11497;52.222;21.246;2023-03-20T06:20:05;100277.66;;;13.35;47.52
22662;BME280;11497;52.222;21.246;2023-03-20T06:22:33;100273.28;;;13.88;46.11
22662;BME280;11497;52.222;21.246;2023-03-20T06:25:02;100275.63;;;13.77;45.49
22662;BME280;11497;52.222;21.246;2023-03-20T06:27:35;100276.53;;;13.40;44.79
22662;BME280;11497;52.222;21.246;2023-03-20T06:30:03;100277.88;;;13.10;44.87
22662;BME280;11497;52.222;21.246;2023-03-20T06:32:34;100270.13;;;13.27;44.84
22662;BME280;11497;52.222;21.246;2023-03-20T06:35:05;100280.06;;;13.20;44.90
22662;BME280;11497;52.222;21.246;2023-03-20T06:37:34;100282.19;;;13.31;44.66
22662;BME280;11497;52.222;21.246;2023-03-20T06:40:11;100276.34;;;13.43;44.51
22662;BME280;11497;52.222;21.246;2023-03-20T06:42:39;100269.22;;;13.83;43.94
22662;BME280;11497;52.222;21.246;2023-03-20T06:45:08;100278.81;;;14.36;42.97
22662;BME280;11497;52.222;21.246;2023-03-20T06:47:52;100268.59;;;15.46;40.85
22662;BME280;11497;52.222;21.246;2023-03-20T06:50:19;100281.22;;;15.88;39.91
22662;BME280;11497;52.222;21.246;2023-03-20T06:52:48;100282.41;;;15.67;39.29
22662;BME280;11497;52.222;21.246;2023-03-20T06:55:33;100278.09;;;15.17;39.59
22662;BME280;11497;52.222;21.246;2023-03-20T06:58:01;100283.06;;;15.54;39.35
22662;BME280;11497;52.222;21.246;2023-03-20T07:00:30;100274.19;;;16.33;38.92
22662;BME280;11497;52.222;21.246;2023-03-20T07:03:03;100277.06;;;17.72;37.19
22662;BME280;11497;52.222;21.246;2023-03-20T07:05:31;100274.44;;;18.64;35.70
22662;BME280;11497;52.222;21.246;2023-03-20T07:08:01;100280.56;;;19.40;33.62
22662;BME280;11497;52.222;21.246;2023-03-20T07:10:29;100276.25;;;19.50;33.03
22662;BME280;11497;52.222;21.246;2023-03-20T07:12:57;100275.53;;;19.48;32.35
22662;BME280;11497;52.222;21.246;2023-03-20T07:15:25;100277.91;;;19.40;32.20
22662;BME280;11497;52.222;21.246;2023-03-20T07:17:53;100274.63;;;19.24;32.25
22662;BME280;11497;52.222;21.246;2023-03-20T07:20:21;100272.09;;;18.59;32.51
22662;BME280;11497;52.222;21.246;2023-03-20T07:22:49;100271.81;;;18.24;32.73
22662;BME280;11497;52.222;21.246;2023-03-20T07:25:23;100285.41;;;17.92;33.52
22662;BME280;11497;52.222;21.246;2023-03-20T07:28:08;100281.19;;;18.42;33.26
22662;BME280;11497;52.222;21.246;2023-03-20T07:30:39;100277.81;;;18.01;33.52
22662;BME280;11497;52.222;21.246;2023-03-20T07:33:07;100277.00;;;19.03;33.14
22662;BME280;11497;52.222;21.246;2023-03-20T07:35:36;100272.97;;;19.59;32.49
22662;BME280;11497;52.222;21.246;2023-03-20T07:38:06;100275.44;;;19.86;31.96
22662;BME280;11497;52.222;21.246;2023-03-20T07:40:41;100278.69;;;20.14;31.66
22662;BME280;11497;52.222;21.246;2023-03-20T07:43:12;100285.25;;;20.56;30.96
22662;BME280;11497;52.222;21.246;2023-03-20T07:46:04;100277.22;;;21.24;30.20
22662;BME280;11497;52.222;21.246;2023-03-20T07:48:35;100281.03;;;22.19;29.25
22662;BME280;11497;52.222;21.246;2023-03-20T07:51:03;100284.84;;;23.10;28.20
22662;BME280;11497;52.222;21.246;2023-03-20T07:53:31;100281.03;;;24.02;27.03
22662;BME280;11497;52.222;21.246;2023-03-20T07:56:00;100287.25;;;24.51;26.28
22662;BME280;11497;52.222;21.246;2023-03-20T07:58:27;100286.66;;;23.99;26.09
22662;BME280;11497;52.222;21.246;2023-03-20T08:00:58;100286.09;;;24.15;25.80
22662;BME280;11497;52.222;21.246;2023-03-20T08:03:26;100280.47;;;24.28;25.64
22662;BME280;11497;52.222;21.246;2023-03-20T08:05:54;100275.88;;;24.86;25.36
22662;BME280;11497;52.222;21.246;2023-03-20T08:08:22;100287.81;;;24.35;25.50
22662;BME280;11497;52.222;21.246;2023-03-20T08:10:50;100282.31;;;24.27;25.34
22662;BME280;11497;52.222;21.246;2023-03-20T08:13:18;100284.94;;;24.75;25.38
22662;BME280;11497;52.222;21.246;2023-03-20T08:15:46;100276.00;;;25.86;24.46
22662;BME280;11497;52.222;21.246;2023-03-20T08:18:14;100273.31;;;25.59;23.96
22662;BME280;11497;52.222;21.246;2023-03-20T08:20:42;100284.44;;;25.91;23.67
22662;BME280;11497;52.222;21.246;2023-03-20T08:23:09;100283.91;;;26.23;23.59
22662;BME280;11497;52.222;21.246;2023-03-20T08:25:38;100280.88;;;26.62;23.02
22662;BME280;11497;52.222;21.246;2023-03-20T08:28:06;100284.41;;;27.14;22.71
22662;BME280;11497;52.222;21.246;2023-03-20T08:30:34;100281.38;;;27.51;22.17
22662;BME280;11497;52.222;21.246;2023-03-20T08:33:02;100283.38;;;27.49;22.12
22662;BME280;11497;52.222;21.246;2023-03-20T08:35:30;100279.91;;;26.27;21.91
22662;BME280;11497;52.222;21.246;2023-03-20T08:38:01;100278.00;;;25.29;22.77
22662;BME280;11497;52.222;21.246;2023-03-20T08:40:30;100269.25;;;24.90;23.30
22662;BME280;11497;52.222;21.246;2023-03-20T08:42:58;100275.59;;;24.99;23.90
22662;BME280;11497;52.222;21.246;2023-03-20T08:45:26;100277.78;;;25.13;23.51
22662;BME280;11497;52.222;21.246;2023-03-20T08:47:54;100275.84;;;24.49;23.62
22662;BME280;11497;52.222;21.246;2023-03-20T08:50:22;100276.72;;;24.86;24.03
22662;BME280;11497;52.222;21.246;2023-03-20T08:52:49;100272.94;;;25.26;23.37
22662;BME280;11497;52.222;21.246;2023-03-20T08:55:19;100275.84;;;25.60;23.33
22662;BME280;11497;52.222;21.246;2023-03-20T08:57:47;100282.09;;;24.96;23.73
22662;BME280;11497;52.222;21.246;2023-03-20T09:00:15;100276.13;;;24.17;23.92
22662;BME280;11497;52.222;21.246;2023-03-20T09:02:43;100281.97;;;23.63;24.28
22662;BME280;11497;52.222;21.246;2023-03-20T09:05:11;100284.75;;;23.21;24.57
22662;BME280;11497;52.222;21.246;2023-03-20T09:07:39;100281.09;;;21.97;25.44
22662;BME280;11497;52.222;21.246;2023-03-20T09:10:08;100276.38;;;21.35;26.36
22662;BME280;11497;52.222;21.246;2023-03-20T09:12:36;100277.59;;;21.09;27.08
22662;BME280;11497;52.222;21.246;2023-03-20T09:15:05;100277.22;;;21.13;27.34
22662;BME280;11497;52.222;21.246;2023-03-20T09:17:33;100281.31;;;20.84;27.68
22662;BME280;11497;52.222;21.246;2023-03-20T09:20:01;100285.72;;;20.50;28.13
22662;BME280;11497;52.222;21.246;2023-03-20T09:22:29;100284.91;;;20.37;28.38
22662;BME280;11497;52.222;21.246;2023-03-20T09:24:57;100273.50;;;19.88;28.96
22662;BME280;11497;52.222;21.246;2023-03-20T09:27:25;100272.88;;;19.85;29.38
22662;BME280;11497;52.222;21.246;2023-03-20T09:29:53;100277.25;;;19.49;29.68
22662;BME280;11497;52.222;21.246;2023-03-20T09:32:20;100274.28;;;19.41;30.15
22662;BME280;11497;52.222;21.246;2023-03-20T09:34:48;100273.88;;;19.35;30.27
22662;BME280;11497;52.222;21.246;2023-03-20T09:37:16;100275.97;;;19.42;30.92
22662;BME280;11497;52.222;21.246;2023-03-20T09:39:44;100272.81;;;19.37;30.69
22662;BME280;11497;52.222;21.246;2023-03-20T09:42:47;100275.00;;;20.27;30.45
22662;BME280;11497;52.222;21.246;2023-03-20T09:48:45;100260.97;;;20.83;29.21
22662;BME280;11497;52.222;21.246;2023-03-20T09:51:54;100262.19;;;21.57;28.75
22662;BME280;11497;52.222;21.246;2023-03-20T09:59:52;100248.56;;;24.82;25.26
22662;BME280;11497;52.222;21.246;2023-03-20T10:05:43;100256.06;;;23.53;24.86
22662;BME280;11497;52.222;21.246;2023-03-20T10:08:14;100255.56;;;22.47;25.37
22662;BME280;11497;52.222;21.246;2023-03-20T10:10:54;100260.38;;;22.01;26.23
22662;BME280;11497;52.222;21.246;2023-03-20T10:22:00;100253.66;;;20.05;27.95
22662;BME280;11497;52.222;21.246;2023-03-20T10:24:37;100254.31;;;19.96;28.72
22662;BME280;11497;52.222;21.246;2023-03-20T10:27:16;100249.91;;;20.08;29.43
22662;BME280;11497;52.222;21.246;2023-03-20T10:32:49;100254.59;;;20.28;29.35
22662;BME280;11497;52.222;21.246;2023-03-20T10:35:47;100254.94;;;20.23;29.47
22662;BME280;11497;52.222;21.246;2023-03-20T10:38:44;100253.41;;;20.08;29.23
22662;BME280;11497;52.222;21.246;2023-03-20T10:41:26;100249.81;;;19.62;29.76
22662;BME280;11497;52.222;21.246;2023-03-20T10:43:56;100250.31;;;19.30;29.97
22662;BME280;11497;52.222;21.246;2023-03-20T10:46:32;100244.00;;;19.56;30.34
22662;BME280;11497;52.222;21.246;2023-03-20T10:52:14;100244.50;;;19.62;30.41
22662;BME280;11497;52.222;21.246;2023-03-20T10:54:49;100243.31;;;19.29;30.42
22662;BME280;11497;52.222;21.246;2023-03-20T10:57:24;100233.97;;;19.23;31.11
22662;BME280;11497;52.222;21.246;2023-03-20T10:59:55;100236.97;;;19.06;30.97
22662;BME280;11497;52.222;21.246;2023-03-20T11:02:27;100241.47;;;18.80;31.36
22662;BME280;11497;52.222;21.246;2023-03-20T11:04:58;100242.53;;;18.65;31.71
22662;BME280;11497;52.222;21.246;2023-03-20T11:07:31;100238.28;;;18.75;31.76
22662;BME280;11497;52.222;21.246;2023-03-20T11:10:13;100243.59;;;18.75;32.11
22662;BME280;11497;52.222;21.246;2023-03-20T11:12:48;100228.69;;;19.11;32.18
22662;BME280;11497;52.222;21.246;2023-03-20T11:15:31;100235.47;;;19.15;32.28
22662;BME280;11497;52.222;21.246;2023-03-20T11:18:05;100232.47;;;19.32;32.00
22662;BME280;11497;52.222;21.246;2023-03-20T11:20:48;100228.88;;;19.33;31.79
22662;BME280;11497;52.222;21.246;2023-03-20T11:23:20;100235.41;;;19.53;31.49
22662;BME280;11497;52.222;21.246;2023-03-20T11:26:05;100229.19;;;19.65;31.60
22662;BME280;11497;52.222;21.246;2023-03-20T11:28:36;100234.09;;;19.58;31.53
22662;BME280;11497;52.222;21.246;2023-03-20T11:31:20;100228.53;;;19.74;31.65
22662;BME280;11497;52.222;21.246;2023-03-20T11:34:08;100225.81;;;19.63;31.38
22662;BME280;11497;52.222;21.246;2023-03-20T11:36:37;100224.75;;;19.66;31.47
22662;BME280;11497;52.222;21.246;2023-03-20T11:39:21;100225.75;;;19.76;31.56
22662;BME280;11497;52.222;21.246;2023-03-20T11:41:55;100214.56;;;19.59;31.46
22662;BME280;11497;52.222;21.246;2023-03-20T11:44:29;100224.97;;;19.13;32.32
22662;BME280;11497;52.222;21.246;2023-03-20T11:47:02;100214.53;;;18.86;33.19
22662;BME280;11497;52.222;21.246;2023-03-20T11:49:44;100202.03;;;18.63;33.98
22662;BME280;11497;52.222;21.246;2023-03-20T11:52:19;100203.72;;;18.64;34.73
22662;BME280;11497;52.222;21.246;2023-03-20T11:54:56;100212.63;;;18.63;34.60
22662;BME280;11497;52.222;21.246;2023-03-20T12:00:24;100203.91;;;18.23;35.54
22662;BME280;11497;52.222;21.246;2023-03-20T12:02:53;100210.03;;;18.23;36.04
22662;BME280;11497;52.222;21.246;2023-03-20T12:05:36;100203.03;;;18.22;36.13
22662;BME280;11497;52.222;21.246;2023-03-20T12:08:23;100201.34;;;18.21;35.78
22662;BME280;11497;52.222;21.246;2023-03-20T12:10:59;100191.59;;;18.09;35.87
22662;BME280;11497;52.222;21.246;2023-03-20T12:13:34;100198.56;;;17.98;36.03
22662;BME280;11497;52.222;21.246;2023-03-20T12:16:10;100192.47;;;17.70;36.41
22662;BME280;11497;52.222;21.246;2023-03-20T12:18:40;100194.06;;;17.73;36.60
22662;BME280;11497;52.222;21.246;2023-03-20T12:24:26;100190.97;;;18.06;36.77
22662;BME280;11497;52.222;21.246;2023-03-20T12:27:06;100189.91;;;18.34;36.69
22662;BME280;11497;52.222;21.246;2023-03-20T12:30:12;100188.44;;;18.42;36.46
22662;BME280;11497;52.222;21.246;2023-03-20T12:35:39;100178.91;;;18.65;36.43
22662;BME280;11497;52.222;21.246;2023-03-20T12:38:29;100185.69;;;18.44;36.46
22662;BME280;11497;52.222;21.246;2023-03-20T12:41:11;100170.41;;;18.35;36.40
22662;BME280;11497;52.222;21.246;2023-03-20T12:44:03;100180.59;;;18.41;36.71
22662;BME280;11497;52.222;21.246;2023-03-20T12:52:21;100174.63;;;17.99;37.45
22662;BME280;11497;52.222;21.246;2023-03-20T13:00:33;100168.78;;;17.54;38.86
22662;BME280;11497;52.222;21.246;2023-03-20T13:03:14;100168.97;;;17.51;38.79
22662;BME280;11497;52.222;21.246;2023-03-20T13:11:46;100161.72;;;18.07;37.85
22662;BME280;11497;52.222;21.246;2023-03-20T13:19:50;100163.44;;;18.34;37.36
22662;BME280;11497;52.222;21.246;2023-03-20T13:27:48;100167.44;;;18.01;37.39
22662;BME280;11497;52.222;21.246;2023-03-20T13:30:35;100159.78;;;17.84;37.58
22662;BME280;11497;52.222;21.246;2023-03-20T13:38:23;100153.34;;;17.34;38.68
22662;BME280;11497;52.222;21.246;2023-03-20T13:41:06;100159.47;;;17.08;39.13
22662;BME280;11497;52.222;21.246;2023-03-20T13:43:57;100158.72;;;16.91;39.27
22662;BME280;11497;52.222;21.246;2023-03-20T13:46:39;100154.25;;;16.79;39.70
22662;BME280;11497;52.222;21.246;2023-03-20T13:52:08;100152.75;;;16.75;40.54
22662;BME280;11497;52.222;21.246;2023-03-20T14:00:37;100149.34;;;16.73;42.01
22662;BME280;11497;52.222;21.246;2023-03-20T14:03:16;100144.78;;;16.61;42.42
22662;BME280;11497;52.222;21.246;2023-03-20T14:05:46;100145.56;;;16.77;42.74
22662;BME280;11497;52.222;21.246;2023-03-20T14:11:05;100150.56;;;16.68;43.05
22662;BME280;11497;52.222;21.246;2023-03-20T14:13:34;100145.09;;;16.71;43.35
22662;BME280;11497;52.222;21.246;2023-03-20T14:16:07;100149.22;;;16.60;43.93
22662;BME280;11497;52.222;21.246;2023-03-20T14:18:36;100150.06;;;16.61;44.17
22662;BME280;11497;52.222;21.246;2023-03-20T14:21:12;100146.03;;;16.41;44.83
22662;BME280;11497;52.222;21.246;2023-03-20T14:24:05;100158.81;;;16.19;46.23
22662;BME280;11497;52.222;21.246;2023-03-20T14:26:37;100154.66;;;16.01;47.34
22662;BME280;11497;52.222;21.246;2023-03-20T14:31:39;100159.09;;;15.54;49.25
22662;BME280;11497;52.222;21.246;2023-03-20T14:34:19;100157.81;;;15.61;50.00
22662;BME280;11497;52.222;21.246;2023-03-20T14:39:50;100167.66;;;15.74;51.09
22662;BME280;11497;52.222;21.246;2023-03-20T14:53:23;100159.78;;;15.42;54.48
22662;BME280;11497;52.222;21.246;2023-03-20T15:01:17;100165.19;;;14.93;57.85
22662;BME280;11497;52.222;21.246;2023-03-20T15:03:58;100166.34;;;14.88;58.88
22662;BME280;11497;52.222;21.246;2023-03-20T15:06:28;100167.78;;;14.62;60.44
22662;BME280;11497;52.222;21.246;2023-03-20T15:08:59;100161.91;;;14.57;61.92
22662;BME280;11497;52.222;21.246;2023-03-20T15:11:28;100159.66;;;14.49;63.14
22662;BME280;11497;52.222;21.246;2023-03-20T15:13:57;100165.47;;;14.56;63.97
22662;BME280;11497;52.222;21.246;2023-03-20T15:16:33;100159.28;;;14.40;64.87
22662;BME280;11497;52.222;21.246;2023-03-20T15:19:18;100167.03;;;14.43;65.24
22662;BME280;11497;52.222;21.246;2023-03-20T15:21:46;100167.53;;;14.16;65.63
22662;BME280;11497;52.222;21.246;2023-03-20T15:24:22;100165.97;;;14.12;65.88
22662;BME280;11497;52.222;21.246;2023-03-20T15:26:58;100161.25;;;14.19;66.02
22662;BME280;11497;52.222;21.246;2023-03-20T15:29:29;100161.03;;;14.06;66.01
22662;BME280;11497;52.222;21.246;2023-03-20T15:31:59;100161.94;;;13.88;66.50
22662;BME280;11497;52.222;21.246;2023-03-20T15:34:44;100156.78;;;14.04;65.81
22662;BME280;11497;52.222;21.246;2023-03-20T15:37:16;100170.97;;;13.84;65.97
22662;BME280;11497;52.222;21.246;2023-03-20T15:39:52;100176.53;;;13.78;66.27
22662;BME280;11497;52.222;21.246;2023-03-20T15:42:24;100179.63;;;13.86;66.70